sensor_id;sensor_type;location;lat;lon;timestamp;P1;durP1;ratioP1;P2;durP2;ratioP2
72501;SDS011;60524;49.874;8.652;2022-10-31T00:01:24;12.87;;;5.33;;
72501;SDS011;60524;49.874;8.652;2022-10-31T00:03:51;12.55;;;5.70;;
72501;SDS011;60524;49.874;8.652;2022-10-31T00:06:16;15.40;;;5.67;;
72501;SDS011;60524;49.874;8.652;2022-10-31T00:08:47;13.13;;;5.70;;
72501;SDS011;60524;49.874;8.652;2022-10-31T00:11:16;15.85;;;5.50;;
72501;SDS011;60524;49.874;8.652;2022-10-31T00:13:41;17.20;;;6.33;;
72501;SDS011;60524;49.874;8.652;2022-10-31T00:16:12;15.87;;;6.53;;
72501;SDS011;60524;49.874;8.652;2022-10-31T00:18:41;18.45;;;6.22;;
72501;SDS011;60524;49.874;8.652;2022-10-31T00:21:06;14.17;;;6.13;;
72501;SDS011;60524;49.874;8.652;2022-10-31T00:23:31;14.57;;;5.83;;
72501;SDS011;60524;49.874;8.652;2022-10-31T00:26:03;12.57;;;5.67;;
72501;SDS011;60524;49.874;8.652;2022-10-31T00:28:30;14.75;;;5.55;;
72501;SDS011;60524;49.874;8.652;2022-10-31T00:31:00;18.60;;;6.10;;
72501;SDS011;60524;49.874;8.652;2022-10-31T00:33:26;15.13;;;5.70;;
72501;SDS011;60524;49.874;8.652;2022-10-31T00:35:52;15.30;;;6.10;;
72501;SDS011;60524;49.874;8.652;2022-10-31T00:38:17;14.63;;;5.87;;
72501;SDS011;60524;49.874;8.652;2022-10-31T00:40:42;14.27;;;5.93;;
72501;SDS011;60524;49.874;8.652;2022-10-31T00:43:08;16.33;;;5.60;;
72501;SDS011;60524;49.874;8.652;2022-10-31T00:45:33;10.73;;;5.20;;
72501;SDS011;60524;49.874;8.652;2022-10-31T00:47:58;12.80;;;5.07;;
72501;SDS011;60524;49.874;8.652;2022-10-31T00:50:23;10.23;;;4.67;;
72501;SDS011;60524;49.874;8.652;2022-10-31T00:52:49;15.27;;;4.60;;
72501;SDS011;60524;49.874;8.652;2022-10-31T00:55:14;16.37;;;4.70;;
72501;SDS011;60524;49.874;8.652;2022-10-31T00:57:39;10.33;;;4.30;;
72501;SDS011;60524;49.874;8.652;2022-10-31T01:00:05;9.47;;;4.57;;
72501;SDS011;60524;49.874;8.652;2022-10-31T01:02:30;11.23;;;4.40;;
72501;SDS011;60524;49.874;8.652;2022-10-31T01:04:56;11.00;;;4.63;;
72501;SDS011;60524;49.874;8.652;2022-10-31T01:07:21;10.10;;;4.17;;
72501;SDS011;60524;49.874;8.652;2022-10-31T01:09:46;11.60;;;4.47;;
72501;SDS011;60524;49.874;8.652;2022-10-31T01:12:11;9.97;;;4.80;;
72501;SDS011;60524;49.874;8.652;2022-10-31T01:14:37;8.77;;;4.80;;
72501;SDS011;60524;49.874;8.652;2022-10-31T01:17:02;13.43;;;4.83;;
72501;SDS011;60524;49.874;8.652;2022-10-31T01:19:27;10.97;;;4.93;;
72501;SDS011;60524;49.874;8.652;2022-10-31T01:21:56;9.90;;;4.43;;
72501;SDS011;60524;49.874;8.652;2022-10-31T01:24:21;10.80;;;4.78;;
72501;SDS011;60524;49.874;8.652;2022-10-31T01:26:46;10.93;;;4.47;;
72501;SDS011;60524;49.874;8.652;2022-10-31T01:29:11;11.30;;;4.30;;
72501;SDS011;60524;49.874;8.652;2022-10-31T01:31:37;10.80;;;3.87;;
72501;SDS011;60524;49.874;8.652;2022-10-31T01:34:04;10.48;;;4.30;;
72501;SDS011;60524;49.874;8.652;2022-10-31T01:36:33;12.90;;;4.30;;
72501;SDS011;60524;49.874;8.652;2022-10-31T01:39:01;10.15;;;4.40;;
72501;SDS011;60524;49.874;8.652;2022-10-31T01:41:29;13.30;;;4.70;;
72501;SDS011;60524;49.874;8.652;2022-10-31T01:46:24;8.32;;;3.53;;
72501;SDS011;60524;49.874;8.652;2022-10-31T01:48:53;10.68;;;3.45;;
72501;SDS011;60524;49.874;8.652;2022-10-31T01:51:19;13.00;;;3.90;;
72501;SDS011;60524;49.874;8.652;2022-10-31T01:53:47;16.65;;;3.95;;
72501;SDS011;60524;49.874;8.652;2022-10-31T01:56:13;12.07;;;3.95;;
72501;SDS011;60524;49.874;8.652;2022-10-31T01:58:39;10.52;;;3.28;;
72501;SDS011;60524;49.874;8.652;2022-10-31T02:01:04;11.48;;;3.97;;
72501;SDS011;60524;49.874;8.652;2022-10-31T02:03:30;8.70;;;3.80;;
72501;SDS011;60524;49.874;8.652;2022-10-31T02:05:55;9.27;;;3.35;;
72501;SDS011;60524;49.874;8.652;2022-10-31T02:08:26;9.82;;;3.47;;
72501;SDS011;60524;49.874;8.652;2022-10-31T02:10:56;8.75;;;4.13;;
72501;SDS011;60524;49.874;8.652;2022-10-31T02:13:22;9.60;;;4.70;;
72501;SDS011;60524;49.874;8.652;2022-10-31T02:15:49;11.15;;;4.03;;
72501;SDS011;60524;49.874;8.652;2022-10-31T02:18:17;10.45;;;3.72;;
72501;SDS011;60524;49.874;8.652;2022-10-31T02:23:34;16.45;;;3.58;;
72501;SDS011;60524;49.874;8.652;2022-10-31T02:29:03;10.30;;;3.65;;
72501;SDS011;60524;49.874;8.652;2022-10-31T02:31:35;10.70;;;3.60;;
72501;SDS011;60524;49.874;8.652;2022-10-31T02:34:17;14.40;;;3.70;;
72501;SDS011;60524;49.874;8.652;2022-10-31T02:39:18;8.90;;;3.85;;
72501;SDS011;60524;49.874;8.652;2022-10-31T02:42:01;11.40;;;3.90;;
72501;SDS011;60524;49.874;8.652;2022-10-31T02:44:39;10.93;;;4.03;;
72501;SDS011;60524;49.874;8.652;2022-10-31T02:47:14;11.98;;;4.53;;
72501;SDS011;60524;49.874;8.652;2022-10-31T02:52:30;13.73;;;3.83;;
72501;SDS011;60524;49.874;8.652;2022-10-31T02:54:57;13.32;;;4.10;;
72501;SDS011;60524;49.874;8.652;2022-10-31T02:57:27;13.93;;;4.60;;
72501;SDS011;60524;49.874;8.652;2022-10-31T02:59:56;13.75;;;4.43;;
72501;SDS011;60524;49.874;8.652;2022-10-31T03:08:20;8.23;;;3.63;;
72501;SDS011;60524;49.874;8.652;2022-10-31T03:11:08;11.77;;;4.60;;
72501;SDS011;60524;49.874;8.652;2022-10-31T03:13:35;12.30;;;4.28;;
72501;SDS011;60524;49.874;8.652;2022-10-31T03:16:15;10.40;;;4.28;;
72501;SDS011;60524;49.874;8.652;2022-10-31T03:18:57;12.23;;;4.38;;
72501;SDS011;60524;49.874;8.652;2022-10-31T03:21:31;15.55;;;4.47;;
72501;SDS011;60524;49.874;8.652;2022-10-31T03:24:00;14.13;;;4.53;;
72501;SDS011;60524;49.874;8.652;2022-10-31T03:26:26;13.65;;;4.45;;
72501;SDS011;60524;49.874;8.652;2022-10-31T03:28:54;7.43;;;3.90;;
72501;SDS011;60524;49.874;8.652;2022-10-31T03:31:23;11.43;;;4.07;;
72501;SDS011;60524;49.874;8.652;2022-10-31T03:33:52;9.93;;;4.30;;
72501;SDS011;60524;49.874;8.652;2022-10-31T03:36:18;10.15;;;4.07;;
72501;SDS011;60524;49.874;8.652;2022-10-31T03:38:45;11.55;;;3.92;;
72501;SDS011;60524;49.874;8.652;2022-10-31T03:41:12;12.82;;;4.25;;
72501;SDS011;60524;49.874;8.652;2022-10-31T03:43:42;12.68;;;4.13;;
72501;SDS011;60524;49.874;8.652;2022-10-31T03:46:13;9.90;;;4.43;;
72501;SDS011;60524;49.874;8.652;2022-10-31T03:48:38;15.13;;;4.05;;
72501;SDS011;60524;49.874;8.652;2022-10-31T03:51:09;12.45;;;3.95;;
72501;SDS011;60524;49.874;8.652;2022-10-31T03:53:41;12.93;;;4.22;;
72501;SDS011;60524;49.874;8.652;2022-10-31T03:56:29;12.63;;;3.65;;
72501;SDS011;60524;49.874;8.652;2022-10-31T04:01:31;10.05;;;3.65;;
72501;SDS011;60524;49.874;8.652;2022-10-31T04:03:58;9.98;;;3.60;;
72501;SDS011;60524;49.874;8.652;2022-10-31T04:06:23;7.38;;;3.30;;
72501;SDS011;60524;49.874;8.652;2022-10-31T04:08:51;11.25;;;3.78;;
72501;SDS011;60524;49.874;8.652;2022-10-31T04:11:19;13.13;;;4.10;;
72501;SDS011;60524;49.874;8.652;2022-10-31T04:13:47;8.18;;;3.60;;
72501;SDS011;60524;49.874;8.652;2022-10-31T04:16:13;11.23;;;4.22;;
72501;SDS011;60524;49.874;8.652;2022-10-31T04:18:39;8.73;;;3.50;;
72501;SDS011;60524;49.874;8.652;2022-10-31T04:21:05;14.80;;;4.00;;
72501;SDS011;60524;49.874;8.652;2022-10-31T04:23:32;12.70;;;4.93;;
72501;SDS011;60524;49.874;8.652;2022-10-31T04:25:58;13.38;;;5.75;;
72501;SDS011;60524;49.874;8.652;2022-10-31T04:28:23;14.52;;;5.53;;
72501;SDS011;60524;49.874;8.652;2022-10-31T04:30:49;18.63;;;6.10;;
72501;SDS011;60524;49.874;8.652;2022-10-31T04:33:14;27.40;;;7.60;;
72501;SDS011;60524;49.874;8.652;2022-10-31T04:35:40;19.23;;;7.05;;
72501;SDS011;60524;49.874;8.652;2022-10-31T04:38:05;23.43;;;7.87;;
72501;SDS011;60524;49.874;8.652;2022-10-31T04:40:30;30.77;;;8.67;;
72501;SDS011;60524;49.874;8.652;2022-10-31T04:42:56;27.60;;;8.83;;
72501;SDS011;60524;49.874;8.652;2022-10-31T04:45:21;33.08;;;8.90;;
72501;SDS011;60524;49.874;8.652;2022-10-31T04:47:46;31.93;;;8.97;;
72501;SDS011;60524;49.874;8.652;2022-10-31T04:50:12;26.40;;;9.88;;
72501;SDS011;60524;49.874;8.652;2022-10-31T04:52:44;25.00;;;8.63;;
72501;SDS011;60524;49.874;8.652;2022-10-31T04:55:10;27.10;;;8.13;;
72501;SDS011;60524;49.874;8.652;2022-10-31T04:57:42;22.52;;;7.85;;
72501;SDS011;60524;49.874;8.652;2022-10-31T05:00:08;21.98;;;8.10;;
72501;SDS011;60524;49.874;8.652;2022-10-31T05:02:34;22.42;;;7.72;;
72501;SDS011;60524;49.874;8.652;2022-10-31T05:04:59;21.20;;;8.43;;
72501;SDS011;60524;49.874;8.652;2022-10-31T05:07:25;24.87;;;8.23;;
72501;SDS011;60524;49.874;8.652;2022-10-31T05:09:50;28.07;;;8.37;;
72501;SDS011;60524;49.874;8.652;2022-10-31T05:12:15;26.23;;;7.70;;
72501;SDS011;60524;49.874;8.652;2022-10-31T05:14:40;21.13;;;7.10;;
72501;SDS011;60524;49.874;8.652;2022-10-31T05:17:06;17.83;;;6.80;;
72501;SDS011;60524;49.874;8.652;2022-10-31T05:19:31;24.73;;;8.27;;
72501;SDS011;60524;49.874;8.652;2022-10-31T05:21:57;24.50;;;8.17;;
72501;SDS011;60524;49.874;8.652;2022-10-31T05:24:22;18.80;;;7.43;;
72501;SDS011;60524;49.874;8.652;2022-10-31T05:26:48;17.77;;;7.43;;
72501;SDS011;60524;49.874;8.652;2022-10-31T05:29:13;27.70;;;8.18;;
72501;SDS011;60524;49.874;8.652;2022-10-31T05:31:39;22.00;;;7.00;;
72501;SDS011;60524;49.874;8.652;2022-10-31T05:34:04;25.77;;;7.30;;
72501;SDS011;60524;49.874;8.652;2022-10-31T05:36:29;16.67;;;6.13;;
72501;SDS011;60524;49.874;8.652;2022-10-31T05:38:55;19.67;;;6.50;;
72501;SDS011;60524;49.874;8.652;2022-10-31T05:41:20;16.47;;;6.57;;
72501;SDS011;60524;49.874;8.652;2022-10-31T05:43:45;14.30;;;5.87;;
72501;SDS011;60524;49.874;8.652;2022-10-31T05:46:10;24.70;;;6.97;;
72501;SDS011;60524;49.874;8.652;2022-10-31T05:48:36;25.93;;;6.63;;
72501;SDS011;60524;49.874;8.652;2022-10-31T05:51:01;15.03;;;5.83;;
72501;SDS011;60524;49.874;8.652;2022-10-31T05:53:26;12.40;;;5.70;;
72501;SDS011;60524;49.874;8.652;2022-10-31T05:55:51;13.83;;;5.77;;
72501;SDS011;60524;49.874;8.652;2022-10-31T05:58:17;16.80;;;6.43;;
72501;SDS011;60524;49.874;8.652;2022-10-31T06:00:42;16.17;;;5.83;;
72501;SDS011;60524;49.874;8.652;2022-10-31T06:03:08;15.23;;;5.93;;
72501;SDS011;60524;49.874;8.652;2022-10-31T06:05:34;15.57;;;5.18;;
72501;SDS011;60524;49.874;8.652;2022-10-31T06:07:59;12.02;;;5.22;;
72501;SDS011;60524;49.874;8.652;2022-10-31T06:10:25;9.07;;;4.28;;
72501;SDS011;60524;49.874;8.652;2022-10-31T06:12:51;16.90;;;4.57;;
72501;SDS011;60524;49.874;8.652;2022-10-31T06:15:17;10.85;;;4.80;;
72501;SDS011;60524;49.874;8.652;2022-10-31T06:17:42;12.50;;;4.43;;
72501;SDS011;60524;49.874;8.652;2022-10-31T06:20:08;14.35;;;4.68;;
72501;SDS011;60524;49.874;8.652;2022-10-31T06:22:34;13.52;;;4.20;;
72501;SDS011;60524;49.874;8.652;2022-10-31T06:24:59;10.77;;;3.87;;
72501;SDS011;60524;49.874;8.652;2022-10-31T06:27:24;12.30;;;4.30;;
72501;SDS011;60524;49.874;8.652;2022-10-31T06:29:50;11.87;;;4.23;;
72501;SDS011;60524;49.874;8.652;2022-10-31T06:32:15;11.60;;;4.53;;
72501;SDS011;60524;49.874;8.652;2022-10-31T06:34:41;13.50;;;4.43;;
72501;SDS011;60524;49.874;8.652;2022-10-31T06:37:11;15.27;;;5.10;;
72501;SDS011;60524;49.874;8.652;2022-10-31T06:39:36;9.13;;;3.95;;
72501;SDS011;60524;49.874;8.652;2022-10-31T06:42:02;14.93;;;4.03;;
72501;SDS011;60524;49.874;8.652;2022-10-31T06:44:27;9.00;;;4.13;;
72501;SDS011;60524;49.874;8.652;2022-10-31T06:46:53;14.48;;;4.35;;
72501;SDS011;60524;49.874;8.652;2022-10-31T06:49:18;11.93;;;3.97;;
72501;SDS011;60524;49.874;8.652;2022-10-31T06:51:46;11.77;;;3.90;;
72501;SDS011;60524;49.874;8.652;2022-10-31T06:54:12;12.48;;;4.03;;
72501;SDS011;60524;49.874;8.652;2022-10-31T06:56:37;15.03;;;4.40;;
72501;SDS011;60524;49.874;8.652;2022-10-31T06:59:02;15.87;;;5.20;;
72501;SDS011;60524;49.874;8.652;2022-10-31T07:01:28;13.63;;;4.47;;
72501;SDS011;60524;49.874;8.652;2022-10-31T07:03:53;10.67;;;3.93;;
72501;SDS011;60524;49.874;8.652;2022-10-31T07:06:18;10.90;;;4.03;;
72501;SDS011;60524;49.874;8.652;2022-10-31T07:08:44;8.87;;;3.73;;
72501;SDS011;60524;49.874;8.652;2022-10-31T07:11:09;7.73;;;3.40;;
72501;SDS011;60524;49.874;8.652;2022-10-31T07:13:34;11.23;;;3.33;;
72501;SDS011;60524;49.874;8.652;2022-10-31T07:16:00;12.23;;;3.70;;
72501;SDS011;60524;49.874;8.652;2022-10-31T07:18:26;10.73;;;3.30;;
72501;SDS011;60524;49.874;8.652;2022-10-31T07:20:52;10.17;;;3.80;;
72501;SDS011;60524;49.874;8.652;2022-10-31T07:23:17;12.95;;;4.40;;
72501;SDS011;60524;49.874;8.652;2022-10-31T07:25:42;8.13;;;4.07;;
72501;SDS011;60524;49.874;8.652;2022-10-31T07:28:08;9.27;;;3.93;;
72501;SDS011;60524;49.874;8.652;2022-10-31T07:30:34;12.50;;;4.43;;
72501;SDS011;60524;49.874;8.652;2022-10-31T07:32:59;11.63;;;4.28;;
72501;SDS011;60524;49.874;8.652;2022-10-31T07:35:26;10.88;;;4.43;;
72501;SDS011;60524;49.874;8.652;2022-10-31T07:40:18;9.00;;;3.80;;
72501;SDS011;60524;49.874;8.652;2022-10-31T07:42:44;15.50;;;5.82;;
72501;SDS011;60524;49.874;8.652;2022-10-31T07:45:13;13.93;;;4.43;;
72501;SDS011;60524;49.874;8.652;2022-10-31T07:47:42;10.20;;;4.35;;
72501;SDS011;60524;49.874;8.652;2022-10-31T07:50:08;10.80;;;3.85;;
72501;SDS011;60524;49.874;8.652;2022-10-31T07:52:37;11.25;;;4.22;;
72501;SDS011;60524;49.874;8.652;2022-10-31T07:55:03;7.57;;;3.80;;
72501;SDS011;60524;49.874;8.652;2022-10-31T07:57:29;12.38;;;4.07;;
72501;SDS011;60524;49.874;8.652;2022-10-31T07:59:54;16.07;;;4.10;;
72501;SDS011;60524;49.874;8.652;2022-10-31T08:02:20;7.23;;;3.47;;
72501;SDS011;60524;49.874;8.652;2022-10-31T08:04:45;10.43;;;3.37;;
72501;SDS011;60524;49.874;8.652;2022-10-31T08:07:10;6.70;;;3.47;;
72501;SDS011;60524;49.874;8.652;2022-10-31T08:09:35;9.23;;;3.97;;
72501;SDS011;60524;49.874;8.652;2022-10-31T08:12:01;9.00;;;3.70;;
72501;SDS011;60524;49.874;8.652;2022-10-31T08:14:26;9.18;;;4.55;;
72501;SDS011;60524;49.874;8.652;2022-10-31T08:16:52;9.73;;;4.10;;
72501;SDS011;60524;49.874;8.652;2022-10-31T08:19:18;10.10;;;4.05;;
72501;SDS011;60524;49.874;8.652;2022-10-31T08:21:43;6.63;;;3.83;;
72501;SDS011;60524;49.874;8.652;2022-10-31T08:24:08;11.17;;;4.07;;
72501;SDS011;60524;49.874;8.652;2022-10-31T08:26:34;8.02;;;4.05;;
72501;SDS011;60524;49.874;8.652;2022-10-31T08:28:59;9.57;;;4.63;;
72501;SDS011;60524;49.874;8.652;2022-10-31T08:31:25;11.15;;;4.10;;
72501;SDS011;60524;49.874;8.652;2022-10-31T08:33:52;9.75;;;4.85;;
72501;SDS011;60524;49.874;8.652;2022-10-31T08:36:18;9.10;;;3.90;;
72501;SDS011;60524;49.874;8.652;2022-10-31T08:38:43;9.07;;;3.70;;
72501;SDS011;60524;49.874;8.652;2022-10-31T08:41:09;12.53;;;4.90;;
72501;SDS011;60524;49.874;8.652;2022-10-31T08:43:34;17.83;;;9.87;;
72501;SDS011;60524;49.874;8.652;2022-10-31T08:45:59;10.90;;;5.27;;
72501;SDS011;60524;49.874;8.652;2022-10-31T08:48:25;11.00;;;4.40;;
72501;SDS011;60524;49.874;8.652;2022-10-31T08:50:50;11.13;;;4.73;;
72501;SDS011;60524;49.874;8.652;2022-10-31T08:53:18;8.23;;;3.93;;
72501;SDS011;60524;49.874;8.652;2022-10-31T08:55:44;9.73;;;3.85;;
72501;SDS011;60524;49.874;8.652;2022-10-31T08:58:11;7.45;;;3.85;;
72501;SDS011;60524;49.874;8.652;2022-10-31T09:00:38;10.80;;;4.03;;
72501;SDS011;60524;49.874;8.652;2022-10-31T09:03:04;8.20;;;3.22;;
72501;SDS011;60524;49.874;8.652;2022-10-31T09:07:57;10.10;;;4.00;;
72501;SDS011;60524;49.874;8.652;2022-10-31T09:10:23;9.55;;;3.58;;
72501;SDS011;60524;49.874;8.652;2022-10-31T09:13:09;9.52;;;3.35;;
72501;SDS011;60524;49.874;8.652;2022-10-31T09:15:45;9.30;;;3.88;;
72501;SDS011;60524;49.874;8.652;2022-10-31T09:18:12;10.05;;;3.72;;
72501;SDS011;60524;49.874;8.652;2022-10-31T09:20:39;8.55;;;3.67;;
72501;SDS011;60524;49.874;8.652;2022-10-31T09:23:26;8.68;;;3.33;;
72501;SDS011;60524;49.874;8.652;2022-10-31T09:25:51;10.88;;;3.75;;
72501;SDS011;60524;49.874;8.652;2022-10-31T09:28:19;11.15;;;3.92;;
72501;SDS011;60524;49.874;8.652;2022-10-31T09:30:49;8.60;;;3.67;;
72501;SDS011;60524;49.874;8.652;2022-10-31T09:33:16;11.65;;;3.55;;
72501;SDS011;60524;49.874;8.652;2022-10-31T09:35:41;10.27;;;3.42;;
72501;SDS011;60524;49.874;8.652;2022-10-31T09:38:11;12.93;;;3.57;;
72501;SDS011;60524;49.874;8.652;2022-10-31T09:40:41;10.00;;;4.18;;
72501;SDS011;60524;49.874;8.652;2022-10-31T09:51:43;10.57;;;3.90;;
72501;SDS011;60524;49.874;8.652;2022-10-31T09:54:21;10.40;;;3.88;;
72501;SDS011;60524;49.874;8.652;2022-10-31T09:56:52;7.30;;;3.55;;
72501;SDS011;60524;49.874;8.652;2022-10-31T09:59:20;9.48;;;3.40;;
72501;SDS011;60524;49.874;8.652;2022-10-31T10:01:51;10.30;;;3.55;;
72501;SDS011;60524;49.874;8.652;2022-10-31T10:06:51;8.40;;;3.20;;
72501;SDS011;60524;49.874;8.652;2022-10-31T10:09:18;8.35;;;2.55;;
72501;SDS011;60524;49.874;8.652;2022-10-31T10:18:12;9.15;;;3.10;;
72501;SDS011;60524;49.874;8.652;2022-10-31T10:23:22;8.68;;;3.63;;
72501;SDS011;60524;49.874;8.652;2022-10-31T10:25:59;6.70;;;3.38;;
72501;SDS011;60524;49.874;8.652;2022-10-31T10:28:29;12.85;;;3.40;;
72501;SDS011;60524;49.874;8.652;2022-10-31T10:31:14;10.13;;;3.67;;
72501;SDS011;60524;49.874;8.652;2022-10-31T10:33:43;10.38;;;3.25;;
72501;SDS011;60524;49.874;8.652;2022-10-31T10:36:11;11.43;;;3.20;;
72501;SDS011;60524;49.874;8.652;2022-10-31T10:41:14;11.18;;;3.70;;
72501;SDS011;60524;49.874;8.652;2022-10-31T10:43:41;11.68;;;3.70;;
72501;SDS011;60524;49.874;8.652;2022-10-31T10:52:04;11.52;;;4.28;;
72501;SDS011;60524;49.874;8.652;2022-10-31T10:54:39;11.85;;;3.65;;
72501;SDS011;60524;49.874;8.652;2022-10-31T10:59:47;11.45;;;3.22;;
72501;SDS011;60524;49.874;8.652;2022-10-31T11:02:17;10.65;;;3.58;;
72501;SDS011;60524;49.874;8.652;2022-10-31T11:04:45;11.07;;;3.40;;
72501;SDS011;60524;49.874;8.652;2022-10-31T11:07:14;10.27;;;3.80;;
72501;SDS011;60524;49.874;8.652;2022-10-31T11:09:39;15.43;;;4.63;;
72501;SDS011;60524;49.874;8.652;2022-10-31T11:12:15;12.20;;;3.78;;
72501;SDS011;60524;49.874;8.652;2022-10-31T11:14:54;7.13;;;3.45;;
72501;SDS011;60524;49.874;8.652;2022-10-31T11:17:26;11.02;;;3.30;;
72501;SDS011;60524;49.874;8.652;2022-10-31T11:20:01;9.15;;;3.45;;
72501;SDS011;60524;49.874;8.652;2022-10-31T11:22:43;10.90;;;3.58;;
72501;SDS011;60524;49.874;8.652;2022-10-31T11:25:19;12.52;;;3.10;;
72501;SDS011;60524;49.874;8.652;2022-10-31T11:28:03;9.70;;;3.00;;
72501;SDS011;60524;49.874;8.652;2022-10-31T11:30:30;6.50;;;3.22;;
72501;SDS011;60524;49.874;8.652;2022-10-31T11:33:00;10.02;;;3.25;;
72501;SDS011;60524;49.874;8.652;2022-10-31T11:35:25;14.35;;;3.40;;
72501;SDS011;60524;49.874;8.652;2022-10-31T11:37:51;11.07;;;3.00;;
72501;SDS011;60524;49.874;8.652;2022-10-31T11:42:47;9.60;;;3.55;;
72501;SDS011;60524;49.874;8.652;2022-10-31T11:47:41;7.57;;;3.10;;
72501;SDS011;60524;49.874;8.652;2022-10-31T11:50:11;11.40;;;4.78;;
72501;SDS011;60524;49.874;8.652;2022-10-31T11:53:03;10.85;;;3.10;;
72501;SDS011;60524;49.874;8.652;2022-10-31T11:55:33;6.50;;;2.88;;
72501;SDS011;60524;49.874;8.652;2022-10-31T11:57:59;7.30;;;2.78;;
72501;SDS011;60524;49.874;8.652;2022-10-31T12:00:26;7.05;;;2.58;;
72501;SDS011;60524;49.874;8.652;2022-10-31T12:05:46;10.73;;;2.63;;
72501;SDS011;60524;49.874;8.652;2022-10-31T12:08:14;11.18;;;3.15;;
72501;SDS011;60524;49.874;8.652;2022-10-31T12:10:56;10.85;;;3.20;;
72501;SDS011;60524;49.874;8.652;2022-10-31T12:21:48;8.02;;;3.15;;
72501;SDS011;60524;49.874;8.652;2022-10-31T12:29:59;9.65;;;3.33;;
72501;SDS011;60524;49.874;8.652;2022-10-31T12:43:33;13.95;;;3.10;;
72501;SDS011;60524;49.874;8.652;2022-10-31T12:46:22;7.55;;;2.90;;
72501;SDS011;60524;49.874;8.652;2022-10-31T12:48:54;8.02;;;3.22;;
72501;SDS011;60524;49.874;8.652;2022-10-31T12:51:54;9.23;;;3.13;;
72501;SDS011;60524;49.874;8.652;2022-10-31T12:57:36;9.73;;;3.72;;
72501;SDS011;60524;49.874;8.652;2022-10-31T13:00:17;11.68;;;3.53;;
72501;SDS011;60524;49.874;8.652;2022-10-31T13:02:56;13.35;;;3.40;;
72501;SDS011;60524;49.874;8.652;2022-10-31T13:05:43;8.55;;;3.38;;
72501;SDS011;60524;49.874;8.652;2022-10-31T13:08:12;12.07;;;3.88;;
72501;SDS011;60524;49.874;8.652;2022-10-31T13:13:27;8.43;;;2.97;;
72501;SDS011;60524;49.874;8.652;2022-10-31T13:16:02;9.20;;;3.40;;
72501;SDS011;60524;49.874;8.652;2022-10-31T13:18:44;11.68;;;2.90;;
72501;SDS011;60524;49.874;8.652;2022-10-31T13:21:17;10.77;;;4.05;;
72501;SDS011;60524;49.874;8.652;2022-10-31T13:23:45;13.40;;;3.70;;
72501;SDS011;60524;49.874;8.652;2022-10-31T13:26:28;8.10;;;2.72;;
72501;SDS011;60524;49.874;8.652;2022-10-31T13:31:26;8.07;;;2.78;;
72501;SDS011;60524;49.874;8.652;2022-10-31T13:33:53;11.70;;;3.70;;
72501;SDS011;60524;49.874;8.652;2022-10-31T13:36:38;11.32;;;3.70;;
72501;SDS011;60524;49.874;8.652;2022-10-31T13:39:15;9.43;;;3.00;;
72501;SDS011;60524;49.874;8.652;2022-10-31T13:41:51;10.43;;;3.17;;
72501;SDS011;60524;49.874;8.652;2022-10-31T13:44:28;9.18;;;3.40;;
72501;SDS011;60524;49.874;8.652;2022-10-31T13:46:56;9.00;;;3.00;;
72501;SDS011;60524;49.874;8.652;2022-10-31T13:52:04;11.68;;;3.20;;
72501;SDS011;60524;49.874;8.652;2022-10-31T13:54:37;11.30;;;3.13;;
72501;SDS011;60524;49.874;8.652;2022-10-31T13:57:12;8.55;;;2.90;;
72501;SDS011;60524;49.874;8.652;2022-10-31T13:59:45;7.38;;;2.90;;
72501;SDS011;60524;49.874;8.652;2022-10-31T14:02:14;8.32;;;2.90;;
72501;SDS011;60524;49.874;8.652;2022-10-31T14:04:51;10.40;;;3.17;;
72501;SDS011;60524;49.874;8.652;2022-10-31T14:07:20;10.73;;;2.72;;
72501;SDS011;60524;49.874;8.652;2022-10-31T14:12:24;9.73;;;3.47;;
72501;SDS011;60524;49.874;8.652;2022-10-31T14:14:52;12.70;;;3.83;;
72501;SDS011;60524;49.874;8.652;2022-10-31T14:17:22;8.20;;;3.40;;
72501;SDS011;60524;49.874;8.652;2022-10-31T14:19:56;12.77;;;4.18;;
72501;SDS011;60524;49.874;8.652;2022-10-31T14:22:28;8.45;;;3.20;;
72501;SDS011;60524;49.874;8.652;2022-10-31T14:24:57;6.25;;;3.15;;
72501;SDS011;60524;49.874;8.652;2022-10-31T14:29:51;12.05;;;4.15;;
72501;SDS011;60524;49.874;8.652;2022-10-31T14:32:20;12.37;;;3.17;;
72501;SDS011;60524;49.874;8.652;2022-10-31T14:34:55;10.45;;;3.40;;
72501;SDS011;60524;49.874;8.652;2022-10-31T14:48:25;8.63;;;3.25;;
72501;SDS011;60524;49.874;8.652;2022-10-31T14:51:01;6.90;;;3.47;;
72501;SDS011;60524;49.874;8.652;2022-10-31T14:53:34;10.45;;;3.42;;
72501;SDS011;60524;49.874;8.652;2022-10-31T14:56:02;11.65;;;3.75;;
72501;SDS011;60524;49.874;8.652;2022-10-31T14:58:43;12.02;;;3.55;;
72501;SDS011;60524;49.874;8.652;2022-10-31T15:01:26;11.85;;;2.90;;
72501;SDS011;60524;49.874;8.652;2022-10-31T15:03:53;9.18;;;3.53;;
72501;SDS011;60524;49.874;8.652;2022-10-31T15:06:21;9.20;;;3.35;;
72501;SDS011;60524;49.874;8.652;2022-10-31T15:08:51;8.05;;;3.20;;
72501;SDS011;60524;49.874;8.652;2022-10-31T15:11:18;11.93;;;4.25;;
72501;SDS011;60524;49.874;8.652;2022-10-31T15:16:21;9.20;;;4.32;;
72501;SDS011;60524;49.874;8.652;2022-10-31T15:18:56;10.60;;;3.90;;
72501;SDS011;60524;49.874;8.652;2022-10-31T15:21:25;7.20;;;4.03;;
72501;SDS011;60524;49.874;8.652;2022-10-31T15:23:52;9.68;;;3.88;;
72501;SDS011;60524;49.874;8.652;2022-10-31T15:26:18;8.25;;;3.75;;
72501;SDS011;60524;49.874;8.652;2022-10-31T15:28:46;9.65;;;3.55;;
72501;SDS011;60524;49.874;8.652;2022-10-31T15:31:15;12.07;;;3.47;;
72501;SDS011;60524;49.874;8.652;2022-10-31T15:33:41;9.43;;;3.50;;
72501;SDS011;60524;49.874;8.652;2022-10-31T15:36:19;10.93;;;3.92;;
72501;SDS011;60524;49.874;8.652;2022-10-31T15:38:48;15.65;;;4.03;;
72501;SDS011;60524;49.874;8.652;2022-10-31T15:41:49;12.43;;;4.78;;
72501;SDS011;60524;49.874;8.652;2022-10-31T15:44:28;9.20;;;4.05;;
72501;SDS011;60524;49.874;8.652;2022-10-31T15:47:00;9.77;;;3.80;;
72501;SDS011;60524;49.874;8.652;2022-10-31T15:51:54;13.07;;;3.78;;
72501;SDS011;60524;49.874;8.652;2022-10-31T15:54:19;9.90;;;3.58;;
72501;SDS011;60524;49.874;8.652;2022-10-31T15:56:45;11.70;;;3.90;;
72501;SDS011;60524;49.874;8.652;2022-10-31T15:59:11;10.60;;;3.90;;
72501;SDS011;60524;49.874;8.652;2022-10-31T16:01:43;12.27;;;3.97;;
72501;SDS011;60524;49.874;8.652;2022-10-31T16:04:23;13.60;;;3.95;;
72501;SDS011;60524;49.874;8.652;2022-10-31T16:12:36;8.27;;;3.45;;
72501;SDS011;60524;49.874;8.652;2022-10-31T16:15:03;9.05;;;3.85;;
72501;SDS011;60524;49.874;8.652;2022-10-31T16:17:32;8.77;;;3.75;;
72501;SDS011;60524;49.874;8.652;2022-10-31T16:20:00;15.15;;;4.50;;
72501;SDS011;60524;49.874;8.652;2022-10-31T16:22:32;12.90;;;3.50;;
72501;SDS011;60524;49.874;8.652;2022-10-31T16:25:11;12.38;;;3.90;;
72501;SDS011;60524;49.874;8.652;2022-10-31T16:27:39;9.30;;;4.55;;
72501;SDS011;60524;49.874;8.652;2022-10-31T16:33:22;15.10;;;3.65;;
72501;SDS011;60524;49.874;8.652;2022-10-31T16:35:51;10.88;;;4.28;;
72501;SDS011;60524;49.874;8.652;2022-10-31T16:38:17;7.82;;;3.17;;
72501;SDS011;60524;49.874;8.652;2022-10-31T16:40:42;10.73;;;3.50;;
72501;SDS011;60524;49.874;8.652;2022-10-31T16:43:09;12.55;;;4.40;;
72501;SDS011;60524;49.874;8.652;2022-10-31T16:45:37;10.40;;;3.90;;
72501;SDS011;60524;49.874;8.652;2022-10-31T16:48:12;9.95;;;4.10;;
72501;SDS011;60524;49.874;8.652;2022-10-31T16:50:39;13.95;;;4.18;;
72501;SDS011;60524;49.874;8.652;2022-10-31T16:53:05;8.40;;;4.20;;
72501;SDS011;60524;49.874;8.652;2022-10-31T16:55:31;9.10;;;3.67;;
72501;SDS011;60524;49.874;8.652;2022-10-31T16:57:59;9.63;;;3.83;;
72501;SDS011;60524;49.874;8.652;2022-10-31T17:00:25;12.57;;;4.68;;